createdAt,value
2018-06-03T00:02:20.044Z,101253.62
2018-06-03T00:07:12.430Z,101249.91
2018-06-03T00:12:04.071Z,101247.28
2018-06-03T00:16:54.969Z,101243.28
2018-06-03T00:21:49.319Z,101250.47
2018-06-03T00:26:40.212Z,101245.77
2018-06-03T00:31:31.873Z,101243.34
2018-06-03T00:36:41.547Z,101246.29
2018-06-03T00:41:32.429Z,101251.39
2018-06-03T00:46:24.060Z,101248.62
2018-06-03T00:51:15.712Z,101253.35
2018-06-03T00:56:07.380Z,101258.49
2018-06-03T01:00:58.635Z,101260.85
2018-06-03T01:05:49.534Z,101260.50
2018-06-03T01:10:41.162Z,101269.26
2018-06-03T01:15:32.786Z,101280.67
2018-06-03T01:20:23.722Z,101275.70
2018-06-03T01:25:15.358Z,101273.59
2018-06-03T01:30:06.977Z,101275.55
2018-06-03T01:34:57.859Z,101273.64
2018-06-03T01:39:48.825Z,101272.13
2018-06-03T01:44:40.493Z,101279.02
2018-06-03T01:49:32.133Z,101274.56
2018-06-03T01:54:23.056Z,101269.70
2018-06-03T01:59:14.695Z,101261.68
2018-06-03T02:04:06.351Z,101268.97
2018-06-03T02:08:57.240Z,101265.77
2018-06-03T02:13:48.153Z,101268.44
2018-06-03T02:18:39.034Z,101271.46
2018-06-03T02:23:30.701Z,101270.70
2018-06-03T02:28:21.626Z,101268.53
2018-06-03T02:33:12.561Z,101268.00
2018-06-03T02:38:03.489Z,101266.20
2018-06-03T02:42:54.390Z,101270.64
2018-06-03T02:47:45.308Z,101262.28
2018-06-03T02:52:36.221Z,101270.34
2018-06-03T02:57:27.148Z,101265.64
2018-06-03T03:02:18.135Z,101269.81
2018-06-03T03:07:09.754Z,101268.73
2018-06-03T03:12:01.409Z,101268.85
2018-06-03T03:16:53.063Z,101275.44
2018-06-03T03:21:43.961Z,101274.64
2018-06-03T03:26:35.604Z,101264.48
2018-06-03T03:31:27.239Z,101270.13
2018-06-03T03:36:18.855Z,101272.47
2018-06-03T03:41:11.230Z,101274.09
2018-06-03T03:46:02.868Z,101267.94
2018-06-03T03:50:54.504Z,101272.59
2018-06-03T03:55:46.150Z,101283.27
2018-06-03T04:00:37.065Z,101277.89
2018-06-03T04:05:28.717Z,101280.10
2018-06-03T04:10:20.397Z,101280.47
2018-06-03T04:15:11.373Z,101279.78
2018-06-03T04:20:02.292Z,101282.39
2018-06-03T04:24:53.936Z,101287.22
2018-06-03T04:29:44.849Z,101280.52
2018-06-03T04:34:35.804Z,101285.73
2018-06-03T04:39:27.393Z,101289.84
2018-06-03T04:44:19.036Z,101292.31
2018-06-03T04:49:11.432Z,101305.34
2018-06-03T04:54:03.109Z,101299.18
2018-06-03T04:58:55.495Z,101302.87
2018-06-03T05:03:47.126Z,101304.25
2018-06-03T05:08:38.736Z,101305.92
2018-06-03T05:13:31.186Z,101307.13
2018-06-03T05:18:23.585Z,101303.36
2018-06-03T05:23:14.487Z,101304.46
2018-06-03T05:28:06.140Z,101306.23
2018-06-03T05:32:57.904Z,101317.27
2018-06-03T05:37:48.820Z,101316.77
2018-06-03T05:42:40.439Z,101311.16
2018-06-03T05:47:31.337Z,101315.86
2018-06-03T05:52:23.828Z,101313.50
2018-06-03T06:02:16.661Z,101321.83
2018-06-03T06:07:09.029Z,101320.55
2018-06-03T06:12:01.403Z,101323.92
2018-06-03T06:16:53.027Z,101320.03
2018-06-03T06:21:44.653Z,101322.27
2018-06-03T06:26:35.553Z,101330.11
2018-06-03T06:31:28.246Z,101334.75
2018-06-03T06:36:19.914Z,101338.86
2018-06-03T06:41:11.540Z,101334.87
2018-06-03T06:46:02.433Z,101332.84
2018-06-03T06:50:54.809Z,101330.66
2018-06-03T06:55:46.554Z,101335.02
2018-06-03T07:00:37.412Z,101340.55
2018-06-03T07:05:28.414Z,101338.89
2018-06-03T07:10:19.341Z,101347.66
2018-06-03T07:15:10.228Z,101348.72
2018-06-03T07:20:02.618Z,101351.74
2018-06-03T07:24:54.249Z,101358.09
2018-06-03T07:29:45.178Z,101356.10
2018-06-03T07:34:36.065Z,101364.90
2018-06-03T07:39:27.710Z,101366.02
2018-06-03T07:44:18.622Z,101364.79
2018-06-03T07:49:10.315Z,101365.73
2018-06-03T07:54:02.002Z,101366.35
2018-06-03T07:58:53.672Z,101365.42
2018-06-03T08:03:45.319Z,101368.45
2018-06-03T08:08:36.227Z,101370.38
2018-06-03T08:13:27.267Z,101370.77
2018-06-03T08:23:09.141Z,101382.55
2018-06-03T08:28:00.776Z,101382.14
2018-06-03T08:32:52.388Z,101388.78
2018-06-03T08:37:43.285Z,101386.70
2018-06-03T08:42:34.195Z,101387.77
2018-06-03T08:47:26.683Z,101388.73
2018-06-03T08:52:19.190Z,101391.74
2018-06-03T08:57:10.108Z,101395.20
2018-06-03T09:02:01.767Z,101392.22
2018-06-03T09:06:52.723Z,101397.77
2018-06-03T09:11:43.580Z,101389.46
2018-06-03T09:16:35.279Z,101390.00
2018-06-03T09:21:27.671Z,101389.59
2018-06-03T09:26:19.363Z,101392.88
2018-06-03T09:31:10.300Z,101400.14
2018-06-03T09:36:01.170Z,101409.35
2018-06-03T09:40:52.049Z,101406.77
2018-06-03T09:45:43.706Z,101404.20
2018-06-03T09:50:35.375Z,101406.48
2018-06-03T09:55:26.302Z,101402.48
2018-06-03T10:00:17.219Z,101403.00
2018-06-03T10:05:08.172Z,101403.19
2018-06-03T10:09:59.191Z,101405.69
2018-06-03T10:14:50.203Z,101409.73
2018-06-03T10:19:41.102Z,101413.13
2018-06-03T10:24:32.784Z,101417.11
2018-06-03T10:29:23.661Z,101412.45
2018-06-03T10:34:14.552Z,101409.87
2018-06-03T10:39:06.251Z,101412.23
2018-06-03T10:43:57.155Z,101419.33
2018-06-03T10:48:48.852Z,101421.96
2018-06-03T10:53:40.487Z,101419.93
2018-06-03T10:58:32.143Z,101432.66
2018-06-03T11:03:23.767Z,101425.17
2018-06-03T11:08:15.368Z,101425.81
2018-06-03T11:13:06.345Z,101422.94
2018-06-03T11:17:58.012Z,101412.06
2018-06-03T11:22:50.716Z,101398.57
2018-06-03T11:27:42.357Z,101400.64
2018-06-03T11:32:34.004Z,101399.03
2018-06-03T11:37:25.653Z,101399.95
2018-06-03T11:42:16.553Z,101400.56
2018-06-03T11:47:08.187Z,101400.42
2018-06-03T11:51:59.826Z,101401.45
2018-06-03T11:56:57.408Z,101396.92
2018-06-03T12:01:48.355Z,101399.95
2018-06-03T12:06:39.956Z,101392.16
2018-06-03T12:11:31.583Z,101394.20
2018-06-03T12:16:23.282Z,101398.44
2018-06-03T12:21:15.219Z,101395.07
2018-06-03T12:26:06.136Z,101388.36
2018-06-03T12:30:57.754Z,101391.69
2018-06-03T12:35:48.613Z,101386.00
2018-06-03T12:41:56.668Z,101380.62
2018-06-03T12:46:49.495Z,101380.04
2018-06-03T12:51:42.427Z,101365.59
2018-06-03T12:56:35.225Z,101368.73
2018-06-03T13:01:30.907Z,101364.19
2018-06-03T13:06:25.927Z,101359.37
2018-06-03T13:11:18.939Z,101354.66
2018-06-03T13:16:11.812Z,101345.41
2018-06-03T13:21:04.739Z,101342.78
2018-06-03T13:25:57.621Z,101335.75
2018-06-03T13:30:50.626Z,101333.23
2018-06-03T13:35:43.441Z,101333.38
2018-06-03T13:40:36.321Z,101317.91
2018-06-03T13:45:29.285Z,101320.66
2018-06-03T13:50:22.194Z,101318.47
2018-06-03T13:55:15.067Z,101315.45
2018-06-03T14:00:07.926Z,101302.82
2018-06-03T14:05:00.960Z,101295.30
2018-06-03T14:09:53.910Z,101291.30
2018-06-03T14:14:46.790Z,101288.60
2018-06-03T14:19:39.663Z,101281.37
2018-06-03T14:24:32.731Z,101281.81
2018-06-03T14:29:25.662Z,101275.14
2018-06-03T14:34:18.609Z,101271.66
2018-06-03T14:39:11.618Z,101268.32
2018-06-03T14:44:04.479Z,101264.64
2018-06-03T14:48:57.327Z,101260.25
2018-06-03T14:53:50.274Z,101261.83
2018-06-03T14:58:43.259Z,101258.31
2018-06-03T15:03:36.193Z,101253.57
2018-06-03T15:08:29.079Z,101251.06
2018-06-03T15:13:22.034Z,101250.91
2018-06-03T15:18:14.890Z,101251.17
2018-06-03T15:23:07.787Z,101255.36
2018-06-03T15:28:00.705Z,101252.04
2018-06-03T15:32:53.681Z,101249.03
2018-06-03T15:37:46.596Z,101245.34
2018-06-03T15:42:39.433Z,101250.23
2018-06-03T15:47:32.348Z,101239.12
2018-06-03T15:52:25.197Z,101240.44
2018-06-03T15:57:18.106Z,101242.63
2018-06-03T16:02:11.089Z,101232.98
2018-06-03T16:07:04.178Z,101222.77
2018-06-03T16:11:57.059Z,101221.77
2018-06-03T16:16:49.917Z,101218.20
2018-06-03T16:21:42.838Z,101211.55
2018-06-03T16:26:35.708Z,101214.31
2018-06-03T16:31:28.625Z,101205.48
2018-06-03T16:36:21.487Z,101202.47
2018-06-03T16:41:14.388Z,101200.94
2018-06-03T16:46:07.411Z,101198.80
2018-06-03T16:51:00.344Z,101199.11
2018-06-03T16:55:53.190Z,101193.91
2018-06-03T17:00:46.050Z,101182.64
2018-06-03T17:05:39.033Z,101184.83
2018-06-03T17:10:31.909Z,101172.89
2018-06-03T17:15:24.869Z,101164.12
2018-06-03T17:20:17.825Z,101162.25
2018-06-03T17:25:10.521Z,101154.63
2018-06-03T17:30:03.711Z,101153.56
2018-06-03T17:34:56.639Z,101149.19
2018-06-03T17:39:49.452Z,101149.50
2018-06-03T17:44:42.334Z,101138.84
2018-06-03T17:49:35.179Z,101135.98
2018-06-03T17:54:28.011Z,101123.24
2018-06-03T17:59:20.817Z,101129.73
2018-06-03T18:04:13.739Z,101122.44
2018-06-03T18:09:08.006Z,101115.11
2018-06-03T18:14:00.930Z,101119.36
2018-06-03T18:18:53.950Z,101111.16
2018-06-03T18:23:47.027Z,101107.39
2018-06-03T18:28:39.931Z,101106.97
2018-06-03T18:33:33.000Z,101112.84
2018-06-03T18:38:25.937Z,101112.73
2018-06-03T18:43:18.834Z,101113.66
2018-06-03T18:48:11.715Z,101109.08
2018-06-03T18:53:04.915Z,101107.58
2018-06-03T18:57:57.801Z,101110.44
2018-06-03T19:02:52.254Z,101103.08
2018-06-03T19:07:48.379Z,101107.31
2018-06-03T19:12:43.262Z,101108.63
2018-06-03T19:17:36.232Z,101118.05
2018-06-03T19:22:29.189Z,101123.04
2018-06-03T19:27:22.091Z,101119.58
2018-06-03T19:32:14.952Z,101129.30
2018-06-03T19:37:07.939Z,101121.17
2018-06-03T19:42:00.877Z,101127.72
2018-06-03T19:46:53.830Z,101128.19
2018-06-03T19:51:46.799Z,101123.64
2018-06-03T19:56:39.828Z,101130.34
2018-06-03T20:01:32.804Z,101129.91
2018-06-03T20:06:25.807Z,101127.58
2018-06-03T20:11:18.751Z,101129.30
2018-06-03T20:16:11.643Z,101128.05
2018-06-03T20:21:04.525Z,101126.45
2018-06-03T20:25:57.454Z,101129.63
2018-06-03T20:30:50.370Z,101128.75
2018-06-03T20:35:43.317Z,101133.83
2018-06-03T20:40:36.157Z,101128.97
2018-06-03T20:45:29.037Z,101128.56
2018-06-03T20:50:21.909Z,101123.45
2018-06-03T20:55:14.740Z,101123.89
2018-06-03T21:00:07.737Z,101124.58
2018-06-03T21:05:00.610Z,101125.53
2018-06-03T21:09:53.499Z,101131.91
2018-06-03T21:14:46.439Z,101130.93
2018-06-03T21:19:39.314Z,101132.37
2018-06-03T21:24:32.200Z,101132.20
2018-06-03T21:29:25.145Z,101125.96
2018-06-03T21:34:18.022Z,101131.02
2018-06-03T21:44:03.327Z,101135.02
2018-06-03T21:48:56.169Z,101128.58
2018-06-03T21:53:49.136Z,101136.59
2018-06-03T21:58:42.108Z,101123.47
2018-06-03T22:03:35.002Z,101124.61
2018-06-03T22:08:27.896Z,101121.19
2018-06-03T22:13:20.823Z,101120.68
2018-06-03T22:18:13.746Z,101122.11
2018-06-03T22:23:06.688Z,101122.40
2018-06-03T22:27:59.641Z,101118.31
2018-06-03T22:32:52.540Z,101124.11
2018-06-03T22:37:45.433Z,101120.34
2018-06-03T22:42:38.278Z,101123.19
2018-06-03T22:47:31.119Z,101122.41
2018-06-03T22:52:24.015Z,101116.75
2018-06-03T22:57:50.180Z,101118.45
2018-06-03T23:02:47.714Z,101119.34
2018-06-03T23:07:40.672Z,101117.46
2018-06-03T23:12:33.550Z,101113.16
2018-06-03T23:17:26.436Z,101110.17
2018-06-03T23:22:19.443Z,101112.11
2018-06-03T23:27:12.325Z,101104.52
2018-06-03T23:32:05.344Z,101101.84
2018-06-03T23:36:58.301Z,101101.87
2018-06-03T23:41:51.145Z,101097.59
2018-06-03T23:46:44.060Z,101093.25
2018-06-03T23:51:36.950Z,101097.41
2018-06-03T23:56:29.868Z,101089.50
